sensor_id;sensor_type;location;lat;lon;timestamp;temperature;humidity
17307;DHT22;8771;48.048;7.682;2023-04-24T00:04:53;13.20;66.10
17307;DHT22;8771;48.048;7.682;2023-04-24T00:09:57;13.20;66.10
17307;DHT22;8771;48.048;7.682;2023-04-24T00:14:59;13.20;66.10
17307;DHT22;8771;48.048;7.682;2023-04-24T00:20:01;13.20;66.10
17307;DHT22;8771;48.048;7.682;2023-04-24T00:25:07;13.20;66.10
17307;DHT22;8771;48.048;7.682;2023-04-24T00:30:10;13.20;66.00
17307;DHT22;8771;48.048;7.682;2023-04-24T00:35:12;13.10;66.10
17307;DHT22;8771;48.048;7.682;2023-04-24T00:40:17;13.10;66.10
17307;DHT22;8771;48.048;7.682;2023-04-24T00:45:19;13.10;66.10
17307;DHT22;8771;48.048;7.682;2023-04-24T00:50:22;13.10;66.10
17307;DHT22;8771;48.048;7.682;2023-04-24T00:55:27;13.20;66.10
17307;DHT22;8771;48.048;7.682;2023-04-24T01:00:30;13.20;66.10
17307;DHT22;8771;48.048;7.682;2023-04-24T01:05:32;13.20;66.10
17307;DHT22;8771;48.048;7.682;2023-04-24T01:10:36;13.20;66.10
17307;DHT22;8771;48.048;7.682;2023-04-24T01:15:39;13.10;66.10
17307;DHT22;8771;48.048;7.682;2023-04-24T01:20:42;13.10;66.20
17307;DHT22;8771;48.048;7.682;2023-04-24T01:25:47;13.10;67.40
17307;DHT22;8771;48.048;7.682;2023-04-24T01:30:49;13.00;66.30
17307;DHT22;8771;48.048;7.682;2023-04-24T01:35:51;13.00;66.40
17307;DHT22;8771;48.048;7.682;2023-04-24T01:40:55;13.00;65.80
17307;DHT22;8771;48.048;7.682;2023-04-24T01:45:57;13.00;66.50
17307;DHT22;8771;48.048;7.682;2023-04-24T01:51:00;12.90;66.50
17307;DHT22;8771;48.048;7.682;2023-04-24T01:56:06;12.90;66.60
17307;DHT22;8771;48.048;7.682;2023-04-24T02:01:08;12.90;66.60
17307;DHT22;8771;48.048;7.682;2023-04-24T02:06:10;12.90;66.60
17307;DHT22;8771;48.048;7.682;2023-04-24T02:11:16;12.90;66.50
17307;DHT22;8771;48.048;7.682;2023-04-24T02:16:18;13.00;66.50
17307;DHT22;8771;48.048;7.682;2023-04-24T02:21:20;13.00;66.50
17307;DHT22;8771;48.048;7.682;2023-04-24T02:26:23;13.00;66.50
17307;DHT22;8771;48.048;7.682;2023-04-24T02:31:25;13.00;66.50
17307;DHT22;8771;48.048;7.682;2023-04-24T02:36:27;12.90;66.50
17307;DHT22;8771;48.048;7.682;2023-04-24T02:41:30;12.90;66.70
17307;DHT22;8771;48.048;7.682;2023-04-24T02:46:33;12.80;66.70
17307;DHT22;8771;48.048;7.682;2023-04-24T02:51:35;12.80;66.70
17307;DHT22;8771;48.048;7.682;2023-04-24T02:56:42;12.90;66.80
17307;DHT22;8771;48.048;7.682;2023-04-24T03:01:44;12.90;66.70
17307;DHT22;8771;48.048;7.682;2023-04-24T03:06:46;12.90;66.70
17307;DHT22;8771;48.048;7.682;2023-04-24T03:11:49;12.90;66.70
17307;DHT22;8771;48.048;7.682;2023-04-24T03:16:51;13.00;66.70
17307;DHT22;8771;48.048;7.682;2023-04-24T03:21:53;13.00;66.70
17307;DHT22;8771;48.048;7.682;2023-04-24T03:26:56;13.00;66.70
17307;DHT22;8771;48.048;7.682;2023-04-24T03:31:58;13.00;66.70
17307;DHT22;8771;48.048;7.682;2023-04-24T03:37:00;13.10;66.70
17307;DHT22;8771;48.048;7.682;2023-04-24T03:42:03;13.10;66.70
17307;DHT22;8771;48.048;7.682;2023-04-24T03:47:05;13.00;66.70
17307;DHT22;8771;48.048;7.682;2023-04-24T03:52:07;13.10;66.80
17307;DHT22;8771;48.048;7.682;2023-04-24T03:57:10;13.10;66.80
17307;DHT22;8771;48.048;7.682;2023-04-24T04:02:13;13.10;66.90
17307;DHT22;8771;48.048;7.682;2023-04-24T04:07:15;13.20;67.00
17307;DHT22;8771;48.048;7.682;2023-04-24T04:12:18;13.20;67.00
17307;DHT22;8771;48.048;7.682;2023-04-24T04:17:20;13.20;67.00
17307;DHT22;8771;48.048;7.682;2023-04-24T04:22:22;13.20;67.00
17307;DHT22;8771;48.048;7.682;2023-04-24T04:27:25;13.20;67.10
17307;DHT22;8771;48.048;7.682;2023-04-24T04:32:28;13.20;67.30
17307;DHT22;8771;48.048;7.682;2023-04-24T04:37:30;13.10;67.30
17307;DHT22;8771;48.048;7.682;2023-04-24T04:42:35;13.10;67.50
17307;DHT22;8771;48.048;7.682;2023-04-24T04:47:40;13.10;68.20
17307;DHT22;8771;48.048;7.682;2023-04-24T04:52:42;13.10;67.50
17307;DHT22;8771;48.048;7.682;2023-04-24T04:57:45;13.10;67.50
17307;DHT22;8771;48.048;7.682;2023-04-24T05:02:47;13.20;67.40
17307;DHT22;8771;48.048;7.682;2023-04-24T05:07:49;13.20;67.40
17307;DHT22;8771;48.048;7.682;2023-04-24T05:12:52;13.20;67.30
17307;DHT22;8771;48.048;7.682;2023-04-24T05:17:54;13.20;68.00
17307;DHT22;8771;48.048;7.682;2023-04-24T05:22:56;13.20;67.30
17307;DHT22;8771;48.048;7.682;2023-04-24T05:27:59;13.20;67.40
17307;DHT22;8771;48.048;7.682;2023-04-24T05:33:01;13.20;67.40
17307;DHT22;8771;48.048;7.682;2023-04-24T05:38:03;13.20;67.50
17307;DHT22;8771;48.048;7.682;2023-04-24T05:43:07;13.20;67.50
17307;DHT22;8771;48.048;7.682;2023-04-24T05:48:08;13.20;67.50
17307;DHT22;8771;48.048;7.682;2023-04-24T05:53:10;13.20;68.30
17307;DHT22;8771;48.048;7.682;2023-04-24T05:58:14;13.20;67.60
17307;DHT22;8771;48.048;7.682;2023-04-24T06:03:16;13.20;67.60
17307;DHT22;8771;48.048;7.682;2023-04-24T06:08:18;13.20;67.60
17307;DHT22;8771;48.048;7.682;2023-04-24T06:13:21;13.20;67.60
17307;DHT22;8771;48.048;7.682;2023-04-24T06:18:23;13.40;67.40
17307;DHT22;8771;48.048;7.682;2023-04-24T06:23:25;13.50;67.10
17307;DHT22;8771;48.048;7.682;2023-04-24T06:28:28;13.60;67.00
17307;DHT22;8771;48.048;7.682;2023-04-24T06:33:30;13.60;66.90
17307;DHT22;8771;48.048;7.682;2023-04-24T06:38:32;13.60;66.90
17307;DHT22;8771;48.048;7.682;2023-04-24T06:43:36;13.60;66.90
17307;DHT22;8771;48.048;7.682;2023-04-24T06:48:38;13.60;67.00
17307;DHT22;8771;48.048;7.682;2023-04-24T06:53:40;13.60;67.10
17307;DHT22;8771;48.048;7.682;2023-04-24T06:58:43;13.50;67.10
17307;DHT22;8771;48.048;7.682;2023-04-24T07:03:45;13.50;67.30
17307;DHT22;8771;48.048;7.682;2023-04-24T07:08:47;13.40;67.30
17307;DHT22;8771;48.048;7.682;2023-04-24T07:13:51;13.60;67.40
17307;DHT22;8771;48.048;7.682;2023-04-24T07:18:53;13.90;67.00
17307;DHT22;8771;48.048;7.682;2023-04-24T07:23:55;14.20;66.40
17307;DHT22;8771;48.048;7.682;2023-04-24T07:28:58;14.70;65.90
17307;DHT22;8771;48.048;7.682;2023-04-24T07:34:00;15.10;65.30
17307;DHT22;8771;48.048;7.682;2023-04-24T07:39:02;15.50;64.70
17307;DHT22;8771;48.048;7.682;2023-04-24T07:44:06;15.50;64.70
17307;DHT22;8771;48.048;7.682;2023-04-24T07:49:08;15.40;64.80
17307;DHT22;8771;48.048;7.682;2023-04-24T07:54:10;15.30;65.10
17307;DHT22;8771;48.048;7.682;2023-04-24T07:59:13;15.20;65.40
17307;DHT22;8771;48.048;7.682;2023-04-24T08:04:15;15.00;65.70
17307;DHT22;8771;48.048;7.682;2023-04-24T08:09:18;15.00;65.90
17307;DHT22;8771;48.048;7.682;2023-04-24T08:14:21;15.00;65.90
17307;DHT22;8771;48.048;7.682;2023-04-24T08:19:23;15.00;65.80
17307;DHT22;8771;48.048;7.682;2023-04-24T08:24:26;14.90;66.40
17307;DHT22;8771;48.048;7.682;2023-04-24T08:29:29;14.80;65.60
17307;DHT22;8771;48.048;7.682;2023-04-24T08:34:31;14.80;65.80
17307;DHT22;8771;48.048;7.682;2023-04-24T08:39:33;14.80;65.60
17307;DHT22;8771;48.048;7.682;2023-04-24T08:44:36;14.90;65.40
17307;DHT22;8771;48.048;7.682;2023-04-24T08:49:39;15.00;65.30
17307;DHT22;8771;48.048;7.682;2023-04-24T08:54:42;15.00;65.10
17307;DHT22;8771;48.048;7.682;2023-04-24T08:59:47;15.00;65.00
17307;DHT22;8771;48.048;7.682;2023-04-24T09:04:49;14.90;65.10
17307;DHT22;8771;48.048;7.682;2023-04-24T09:09:52;14.80;65.10
17307;DHT22;8771;48.048;7.682;2023-04-24T09:14:56;14.70;65.10
17307;DHT22;8771;48.048;7.682;2023-04-24T09:19:58;14.70;65.10
17307;DHT22;8771;48.048;7.682;2023-04-24T09:25:02;14.80;65.00
17307;DHT22;8771;48.048;7.682;2023-04-24T09:30:08;14.80;64.80
17307;DHT22;8771;48.048;7.682;2023-04-24T09:35:11;14.90;64.70
17307;DHT22;8771;48.048;7.682;2023-04-24T09:40:15;15.00;64.70
17307;DHT22;8771;48.048;7.682;2023-04-24T09:45:20;15.00;64.50
17307;DHT22;8771;48.048;7.682;2023-04-24T09:50:22;15.10;64.50
17307;DHT22;8771;48.048;7.682;2023-04-24T09:55:25;15.20;64.40
17307;DHT22;8771;48.048;7.682;2023-04-24T10:00:30;15.40;64.20
17307;DHT22;8771;48.048;7.682;2023-04-24T10:05:33;15.50;63.90
17307;DHT22;8771;48.048;7.682;2023-04-24T10:10:39;15.60;63.80
17307;DHT22;8771;48.048;7.682;2023-04-24T10:15:43;15.70;63.80
17307;DHT22;8771;48.048;7.682;2023-04-24T10:20:45;15.80;63.60
17307;DHT22;8771;48.048;7.682;2023-04-24T10:25:48;16.00;63.40
17307;DHT22;8771;48.048;7.682;2023-04-24T10:30:54;16.10;63.10
17307;DHT22;8771;48.048;7.682;2023-04-24T10:35:56;16.10;63.10
17307;DHT22;8771;48.048;7.682;2023-04-24T10:41:07;16.20;63.10
17307;DHT22;8771;48.048;7.682;2023-04-24T10:46:16;16.40;62.90
17307;DHT22;8771;48.048;7.682;2023-04-24T10:51:22;16.60;62.90
17307;DHT22;8771;48.048;7.682;2023-04-24T10:56:24;16.70;62.70
17307;DHT22;8771;48.048;7.682;2023-04-24T11:01:29;16.80;62.60
17307;DHT22;8771;48.048;7.682;2023-04-24T11:06:32;16.90;62.70
17307;DHT22;8771;48.048;7.682;2023-04-24T11:11:36;17.00;62.50
17307;DHT22;8771;48.048;7.682;2023-04-24T11:16:47;17.10;62.40
17307;DHT22;8771;48.048;7.682;2023-04-24T11:21:58;17.20;62.40
17307;DHT22;8771;48.048;7.682;2023-04-24T11:27:07;17.30;62.40
17307;DHT22;8771;48.048;7.682;2023-04-24T11:32:17;17.20;62.30
17307;DHT22;8771;48.048;7.682;2023-04-24T11:37:21;17.10;62.60
17307;DHT22;8771;48.048;7.682;2023-04-24T11:42:24;17.00;62.70
17307;DHT22;8771;48.048;7.682;2023-04-24T11:47:31;17.00;62.70
17307;DHT22;8771;48.048;7.682;2023-04-24T11:52:37;17.00;62.60
17307;DHT22;8771;48.048;7.682;2023-04-24T11:57:39;17.30;63.10
17307;DHT22;8771;48.048;7.682;2023-04-24T12:02:46;17.60;61.70
17307;DHT22;8771;48.048;7.682;2023-04-24T12:07:48;17.70;61.50
17307;DHT22;8771;48.048;7.682;2023-04-24T12:12:51;17.70;61.40
17307;DHT22;8771;48.048;7.682;2023-04-24T12:17:55;17.80;61.40
17307;DHT22;8771;48.048;7.682;2023-04-24T12:22:59;18.10;61.00
17307;DHT22;8771;48.048;7.682;2023-04-24T12:28:10;18.40;60.60
17307;DHT22;8771;48.048;7.682;2023-04-24T12:33:17;18.70;60.30
17307;DHT22;8771;48.048;7.682;2023-04-24T12:38:22;18.90;60.10
17307;DHT22;8771;48.048;7.682;2023-04-24T12:43:24;19.10;59.90
17307;DHT22;8771;48.048;7.682;2023-04-24T12:48:28;19.30;59.90
17307;DHT22;8771;48.048;7.682;2023-04-24T12:53:30;19.30;60.00
17307;DHT22;8771;48.048;7.682;2023-04-24T12:58:32;19.40;60.20
17307;DHT22;8771;48.048;7.682;2023-04-24T13:03:35;19.80;59.80
17307;DHT22;8771;48.048;7.682;2023-04-24T13:08:37;20.10;59.70
17307;DHT22;8771;48.048;7.682;2023-04-24T13:13:39;20.30;59.50
17307;DHT22;8771;48.048;7.682;2023-04-24T13:18:43;20.40;59.50
17307;DHT22;8771;48.048;7.682;2023-04-24T13:23:44;20.20;59.70
17307;DHT22;8771;48.048;7.682;2023-04-24T13:28:46;20.20;59.80
17307;DHT22;8771;48.048;7.682;2023-04-24T13:33:50;20.30;59.90
17307;DHT22;8771;48.048;7.682;2023-04-24T13:38:52;20.20;60.00
17307;DHT22;8771;48.048;7.682;2023-04-24T13:43:54;20.00;60.10
17307;DHT22;8771;48.048;7.682;2023-04-24T13:48:57;19.80;60.50
17307;DHT22;8771;48.048;7.682;2023-04-24T13:53:59;19.60;60.60
17307;DHT22;8771;48.048;7.682;2023-04-24T13:59:01;19.40;60.90
17307;DHT22;8771;48.048;7.682;2023-04-24T14:04:05;19.20;61.00
17307;DHT22;8771;48.048;7.682;2023-04-24T14:09:07;19.10;61.30
17307;DHT22;8771;48.048;7.682;2023-04-24T14:14:10;19.00;61.20
17307;DHT22;8771;48.048;7.682;2023-04-24T14:19:14;19.10;61.10
17307;DHT22;8771;48.048;7.682;2023-04-24T14:24:16;19.10;61.00
17307;DHT22;8771;48.048;7.682;2023-04-24T14:29:18;19.20;60.70
17307;DHT22;8771;48.048;7.682;2023-04-24T14:34:21;19.40;60.60
17307;DHT22;8771;48.048;7.682;2023-04-24T14:39:23;19.40;60.50
17307;DHT22;8771;48.048;7.682;2023-04-24T14:44:25;19.40;60.50
17307;DHT22;8771;48.048;7.682;2023-04-24T14:49:28;19.30;60.50
17307;DHT22;8771;48.048;7.682;2023-04-24T14:54:31;19.40;60.30
17307;DHT22;8771;48.048;7.682;2023-04-24T14:59:33;19.60;60.00
17307;DHT22;8771;48.048;7.682;2023-04-24T15:04:36;19.80;59.70
17307;DHT22;8771;48.048;7.682;2023-04-24T15:09:39;20.10;59.50
17307;DHT22;8771;48.048;7.682;2023-04-24T15:14:41;20.20;59.40
17307;DHT22;8771;48.048;7.682;2023-04-24T15:19:44;20.00;59.50
17307;DHT22;8771;48.048;7.682;2023-04-24T15:24:46;19.90;59.80
17307;DHT22;8771;48.048;7.682;2023-04-24T15:29:48;19.70;60.00
17307;DHT22;8771;48.048;7.682;2023-04-24T15:34:51;19.70;60.00
17307;DHT22;8771;48.048;7.682;2023-04-24T15:39:53;19.70;60.00
17307;DHT22;8771;48.048;7.682;2023-04-24T15:44:55;19.80;59.80
17307;DHT22;8771;48.048;7.682;2023-04-24T15:50:01;19.60;59.90
17307;DHT22;8771;48.048;7.682;2023-04-24T15:55:04;19.30;60.30
17307;DHT22;8771;48.048;7.682;2023-04-24T16:00:08;19.00;60.60
17307;DHT22;8771;48.048;7.682;2023-04-24T16:05:12;18.90;60.70
17307;DHT22;8771;48.048;7.682;2023-04-24T16:10:14;18.60;60.90
17307;DHT22;8771;48.048;7.682;2023-04-24T16:15:16;18.40;61.30
17307;DHT22;8771;48.048;7.682;2023-04-24T16:20:19;18.10;61.40
17307;DHT22;8771;48.048;7.682;2023-04-24T16:25:21;17.80;61.60
17307;DHT22;8771;48.048;7.682;2023-04-24T16:30:23;17.70;61.60
17307;DHT22;8771;48.048;7.682;2023-04-24T16:35:26;17.50;61.60
17307;DHT22;8771;48.048;7.682;2023-04-24T16:40:28;17.30;62.40
17307;DHT22;8771;48.048;7.682;2023-04-24T16:45:30;17.20;61.70
17307;DHT22;8771;48.048;7.682;2023-04-24T16:50:34;17.10;61.70
17307;DHT22;8771;48.048;7.682;2023-04-24T16:55:36;17.00;61.70
17307;DHT22;8771;48.048;7.682;2023-04-24T17:00:37;17.00;61.60
17307;DHT22;8771;48.048;7.682;2023-04-24T17:05:41;17.00;61.50
17307;DHT22;8771;48.048;7.682;2023-04-24T17:10:43;17.00;61.40
17307;DHT22;8771;48.048;7.682;2023-04-24T17:15:45;17.00;61.30
17307;DHT22;8771;48.048;7.682;2023-04-24T17:20:48;16.90;61.20
17307;DHT22;8771;48.048;7.682;2023-04-24T17:25:50;16.90;61.30
17307;DHT22;8771;48.048;7.682;2023-04-24T17:30:52;16.80;61.30
17307;DHT22;8771;48.048;7.682;2023-04-24T17:35:59;16.70;61.30
17307;DHT22;8771;48.048;7.682;2023-04-24T17:41:01;16.60;61.30
17307;DHT22;8771;48.048;7.682;2023-04-24T17:46:03;16.60;61.30
17307;DHT22;8771;48.048;7.682;2023-04-24T17:51:08;16.50;61.30
17307;DHT22;8771;48.048;7.682;2023-04-24T17:56:10;16.40;61.30
17307;DHT22;8771;48.048;7.682;2023-04-24T18:01:12;16.30;61.40
17307;DHT22;8771;48.048;7.682;2023-04-24T18:06:15;16.30;61.40
17307;DHT22;8771;48.048;7.682;2023-04-24T18:11:18;16.20;62.20
17307;DHT22;8771;48.048;7.682;2023-04-24T18:16:20;16.10;61.40
17307;DHT22;8771;48.048;7.682;2023-04-24T18:21:26;16.10;61.50
17307;DHT22;8771;48.048;7.682;2023-04-24T18:26:28;16.00;61.40
17307;DHT22;8771;48.048;7.682;2023-04-24T18:31:30;15.90;61.50
17307;DHT22;8771;48.048;7.682;2023-04-24T18:36:34;15.80;61.50
17307;DHT22;8771;48.048;7.682;2023-04-24T18:41:36;15.80;61.50
17307;DHT22;8771;48.048;7.682;2023-04-24T18:46:38;15.70;61.40
17307;DHT22;8771;48.048;7.682;2023-04-24T18:51:42;15.60;61.60
17307;DHT22;8771;48.048;7.682;2023-04-24T18:56:44;15.50;62.20
17307;DHT22;8771;48.048;7.682;2023-04-24T19:01:46;15.50;61.50
17307;DHT22;8771;48.048;7.682;2023-04-24T19:06:49;15.30;61.50
17307;DHT22;8771;48.048;7.682;2023-04-24T19:11:51;15.30;61.50
17307;DHT22;8771;48.048;7.682;2023-04-24T19:16:53;15.20;61.50
17307;DHT22;8771;48.048;7.682;2023-04-24T19:21:56;15.10;61.50
17307;DHT22;8771;48.048;7.682;2023-04-24T19:26:58;15.10;61.50
17307;DHT22;8771;48.048;7.682;2023-04-24T19:32:01;15.00;61.50
17307;DHT22;8771;48.048;7.682;2023-04-24T19:37:04;14.90;61.60
17307;DHT22;8771;48.048;7.682;2023-04-24T19:42:06;14.80;61.70
17307;DHT22;8771;48.048;7.682;2023-04-24T19:47:08;14.80;61.60
17307;DHT22;8771;48.048;7.682;2023-04-24T19:52:11;14.70;61.60
17307;DHT22;8771;48.048;7.682;2023-04-24T19:57:14;14.60;61.60
17307;DHT22;8771;48.048;7.682;2023-04-24T20:02:16;14.60;61.80
17307;DHT22;8771;48.048;7.682;2023-04-24T20:07:20;14.50;61.70
17307;DHT22;8771;48.048;7.682;2023-04-24T20:12:22;14.50;61.70
17307;DHT22;8771;48.048;7.682;2023-04-24T20:17:24;14.50;61.60
17307;DHT22;8771;48.048;7.682;2023-04-24T20:22:28;14.40;61.60
17307;DHT22;8771;48.048;7.682;2023-04-24T20:27:31;14.40;61.60
17307;DHT22;8771;48.048;7.682;2023-04-24T20:32:33;14.40;61.50
17307;DHT22;8771;48.048;7.682;2023-04-24T20:37:36;14.40;61.50
17307;DHT22;8771;48.048;7.682;2023-04-24T20:42:38;14.40;61.60
17307;DHT22;8771;48.048;7.682;2023-04-24T20:47:40;14.30;61.50
17307;DHT22;8771;48.048;7.682;2023-04-24T20:52:43;14.30;61.60
17307;DHT22;8771;48.048;7.682;2023-04-24T20:57:45;14.30;61.60
17307;DHT22;8771;48.048;7.682;2023-04-24T21:02:47;14.20;61.60
17307;DHT22;8771;48.048;7.682;2023-04-24T21:07:50;14.20;61.60
17307;DHT22;8771;48.048;7.682;2023-04-24T21:12:55;14.20;61.70
17307;DHT22;8771;48.048;7.682;2023-04-24T21:17:57;14.10;61.60
17307;DHT22;8771;48.048;7.682;2023-04-24T21:23:00;14.10;61.70
17307;DHT22;8771;48.048;7.682;2023-04-24T21:28:02;14.10;61.70
17307;DHT22;8771;48.048;7.682;2023-04-24T21:33:05;14.10;61.60
17307;DHT22;8771;48.048;7.682;2023-04-24T21:38:08;14.10;61.70
17307;DHT22;8771;48.048;7.682;2023-04-24T21:43:10;14.00;61.70
17307;DHT22;8771;48.048;7.682;2023-04-24T21:48:12;14.00;61.80
17307;DHT22;8771;48.048;7.682;2023-04-24T21:53:15;13.90;61.90
17307;DHT22;8771;48.048;7.682;2023-04-24T21:58:17;13.90;61.90
17307;DHT22;8771;48.048;7.682;2023-04-24T22:03:19;13.90;61.90
17307;DHT22;8771;48.048;7.682;2023-04-24T22:08:23;13.90;61.90
17307;DHT22;8771;48.048;7.682;2023-04-24T22:13:25;13.90;61.90
17307;DHT22;8771;48.048;7.682;2023-04-24T22:18:27;13.80;61.90
17307;DHT22;8771;48.048;7.682;2023-04-24T22:23:31;13.80;61.90
17307;DHT22;8771;48.048;7.682;2023-04-24T22:28:33;13.70;62.00
17307;DHT22;8771;48.048;7.682;2023-04-24T22:33:35;13.60;62.00
17307;DHT22;8771;48.048;7.682;2023-04-24T22:38:38;13.50;62.10
17307;DHT22;8771;48.048;7.682;2023-04-24T22:43:40;13.50;62.10
17307;DHT22;8771;48.048;7.682;2023-04-24T22:48:43;13.50;62.10
17307;DHT22;8771;48.048;7.682;2023-04-24T22:53:46;13.40;62.10
17307;DHT22;8771;48.048;7.682;2023-04-24T22:58:48;13.40;62.10
17307;DHT22;8771;48.048;7.682;2023-04-24T23:03:50;13.30;62.10
17307;DHT22;8771;48.048;7.682;2023-04-24T23:08:54;13.20;62.20
17307;DHT22;8771;48.048;7.682;2023-04-24T23:13:55;13.20;62.20
17307;DHT22;8771;48.048;7.682;2023-04-24T23:18:57;13.20;62.20
17307;DHT22;8771;48.048;7.682;2023-04-24T23:24:01;13.20;63.00
17307;DHT22;8771;48.048;7.682;2023-04-24T23:29:03;13.10;62.20
17307;DHT22;8771;48.048;7.682;2023-04-24T23:34:04;13.10;62.20
17307;DHT22;8771;48.048;7.682;2023-04-24T23:39:08;13.10;62.20
17307;DHT22;8771;48.048;7.682;2023-04-24T23:44:10;13.10;62.20
17307;DHT22;8771;48.048;7.682;2023-04-24T23:49:12;13.20;62.20
17307;DHT22;8771;48.048;7.682;2023-04-24T23:54:15;13.20;62.20
17307;DHT22;8771;48.048;7.682;2023-04-24T23:59:17;13.20;62.10
